Time;durP1;ratioP1;P1;durP2;ratioP2;P2;SDS_P1;SDS_P2;PMS_P1;PMS_P2;Temp;Humidity;BMP_temperature;BMP_pressure;BME280_temperature;BME280_humidity;BME280_pressure;Samples;Min_cycle;Max_cycle;Signal;HPM_P1;HPM_P2
2021/04/09 00:02:10;;;;;;;5.20;1.85;;;3.10;75.50;;;2.58;55.45;101753.88;5029520;28;20075;-57
2021/04/09 00:04:37;;;;;;;4.30;1.90;;;3.10;75.10;;;2.81;54.27;101758.09;5028475;28;20038;-54
2021/04/09 00:07:04;;;;;;;4.95;1.20;;;3.30;74.80;;;2.88;53.95;101747.44;5030008;28;20128;-57
2021/04/09 00:09:30;;;;;;;2.88;1.15;;;3.40;74.00;;;2.99;53.45;101753.00;5011755;28;20025;-51
2021/04/09 00:11:57;;;;;;;2.92;1.10;;;3.50;73.30;;;3.09;53.02;101750.88;5030810;28;20030;-52
2021/04/09 00:14:23;;;;;;;2.33;1.13;;;3.50;72.80;;;3.13;52.83;101747.25;5011840;28;20033;-50
2021/04/09 00:16:49;;;;;;;2.70;1.13;;;3.60;72.20;;;3.14;52.70;101751.50;5029956;28;20049;-55
2021/04/09 00:19:18;;;;;;;2.08;1.13;;;3.60;72.10;;;3.16;52.66;101746.28;5029066;28;20044;-53
2021/04/09 00:21:44;;;;;;;3.83;1.45;;;3.70;72.00;;;3.18;53.20;101744.50;5010882;28;20033;-48
2021/04/09 00:24:12;;;;;;;3.20;1.52;;;3.70;72.50;;;3.10;53.41;101747.38;5028201;28;20389;-60
2021/04/09 00:26:38;;;;;;;4.95;1.58;;;3.70;72.90;;;3.14;53.45;101755.81;5030132;28;20041;-57
2021/04/09 00:29:05;;;;;;;4.22;1.20;;;3.70;73.10;;;3.22;53.05;101748.59;5029069;28;20033;-55
2021/04/09 00:31:32;;;;;;;5.65;1.50;;;3.70;72.60;;;3.26;52.85;101757.88;5027477;28;20041;-56
2021/04/09 00:33:58;;;;;;;2.70;1.20;;;3.80;72.30;;;3.24;52.68;101754.53;5028797;28;20030;-55
2021/04/09 00:36:25;;;;;;;2.58;1.17;;;3.80;72.10;;;3.28;53.06;101756.06;5029682;28;20054;-52
2021/04/09 00:38:51;;;;;;;4.40;1.10;;;3.80;72.30;;;3.31;52.66;101751.59;5011272;28;20037;-60
2021/04/09 00:41:17;;;;;;;4.65;1.27;;;3.80;72.20;;;3.33;52.72;101754.09;5028073;28;20033;-51
2021/04/09 00:43:45;;;;;;;3.53;1.40;;;3.90;72.30;;;3.32;53.11;101747.28;5029750;28;20129;-59
2021/04/09 00:46:11;;;;;;;3.45;1.55;;;3.90;73.00;;;3.36;52.96;101742.84;5026395;28;20565;-54
2021/04/09 00:48:37;;;;;;;2.55;1.83;;;3.90;72.60;;;3.42;53.34;101745.97;5028532;28;20485;-61
2021/04/09 00:51:07;;;;;;;2.88;1.60;;;4.00;72.90;;;3.45;53.08;101747.59;5029469;28;20037;-52
2021/04/09 00:53:33;;;;;;;6.65;1.50;;;4.00;72.70;;;3.48;52.66;101745.72;5028693;28;20121;-51
2021/04/09 00:56:04;;;;;;;3.28;1.25;;;4.00;72.40;;;3.52;52.93;101746.41;5010201;28;20034;-50
2021/04/09 00:58:31;;;;;;;6.30;1.23;;;4.00;72.20;;;3.57;52.08;101745.31;5029281;28;20037;-51
2021/04/09 01:00:58;;;;;;;3.47;1.00;;;4.10;71.80;;;3.62;52.08;101743.34;5010327;28;20179;-54
2021/04/09 01:03:25;;;;;;;4.65;1.20;;;4.10;71.10;;;3.69;51.88;101743.09;5029136;28;20080;-51
2021/04/09 01:05:53;;;;;;;1.60;0.50;;;4.20;71.00;;;3.80;51.17;101733.94;5028514;28;20029;-52
2021/04/09 01:08:19;;;;;;;3.95;1.23;;;4.30;70.40;;;3.78;51.65;101729.78;5028392;28;20513;-54
2021/04/09 01:10:46;;;;;;;4.18;1.33;;;4.30;70.90;;;3.63;52.13;101729.56;5028458;28;20469;-46
2021/04/09 01:13:13;;;;;;;4.25;2.15;;;4.30;71.10;;;3.54;52.68;101729.13;5029151;28;20036;-51
2021/04/09 01:15:39;;;;;;;3.42;1.73;;;4.10;71.70;;;3.56;52.57;101727.34;5028734;28;20465;-56
2021/04/09 01:18:29;;;;;;;2.60;1.52;;;4.10;72.20;;;3.61;52.88;101736.53;5011101;28;20420;-55
2021/04/09 01:21:21;;;;;;;3.72;1.25;;;4.10;71.70;;;3.63;52.90;101731.31;5009874;28;20188;-51
2021/04/09 01:24:18;;;;;;;4.47;1.48;;;4.20;71.70;;;3.63;52.86;101727.00;5028760;28;20087;-49
2021/04/09 01:27:24;;;;;;;5.63;1.42;;;4.20;71.50;;;3.62;53.53;101725.31;4992902;28;20041;-51
2021/04/09 01:30:30;;;;;;;2.05;0.90;;;4.20;72.30;;;3.58;53.30;101718.63;5014180;28;20044;-53
2021/04/09 01:32:56;;;;;;;5.13;1.35;;;4.20;72.10;;;3.62;52.29;101719.31;5027250;28;20092;-58
2021/04/09 01:35:25;;;;;;;2.75;1.00;;;4.20;71.60;;;3.65;52.08;101725.19;5010227;28;20045;-54
2021/04/09 01:38:02;;;;;;;2.25;0.63;;;4.20;71.10;;;3.65;52.18;101720.03;5003871;28;20061;-55
2021/04/09 01:40:40;;;;;;;2.88;0.88;;;4.20;71.00;;;3.69;52.12;101719.88;5003050;28;20536;-56
2021/04/09 01:43:12;;;;;;;8.50;1.23;;;4.20;70.90;;;3.66;52.36;101720.88;4988467;28;20043;-54
2021/04/09 01:45:38;;;;;;;2.78;0.90;;;4.20;71.00;;;3.58;51.83;101726.38;4986387;28;20034;-53
2021/04/09 01:48:09;;;;;;;2.85;0.90;;;4.20;71.20;;;3.54;52.49;101724.81;4989184;28;20480;-55
2021/04/09 01:50:36;;;;;;;3.58;1.27;;;4.10;71.40;;;3.48;52.65;101722.53;4988112;28;20391;-51
2021/04/09 01:53:06;;;;;;;2.92;1.65;;;4.10;72.00;;;3.40;53.06;101734.06;5002977;28;20061;-52
2021/04/09 01:55:36;;;;;;;2.47;1.45;;;4.10;72.40;;;3.32;53.81;101724.09;4986731;28;20042;-52
2021/04/09 01:58:04;;;;;;;3.95;1.55;;;3.90;73.10;;;3.30;53.95;101728.50;4989270;28;20046;-57
2021/04/09 02:00:31;;;;;;;7.57;1.98;;;3.80;73.70;;;3.23;53.88;101721.94;5003035;28;20034;-52
2021/04/09 02:02:59;;;;;;;4.97;1.42;;;3.80;74.00;;;3.15;54.28;101708.56;5003024;28;20041;-51
2021/04/09 02:05:28;;;;;;;3.70;1.35;;;3.80;74.20;;;3.11;54.37;101722.47;4985886;28;20126;-53
2021/04/09 02:07:59;;;;;;;3.13;1.52;;;3.70;74.70;;;3.09;54.43;101714.81;4988831;28;20030;-56
2021/04/09 02:10:26;;;;;;;2.67;0.85;;;3.70;74.80;;;3.08;54.91;101710.56;5002826;28;20505;-52
2021/04/09 02:12:54;;;;;;;5.30;1.08;;;3.60;75.20;;;2.99;54.76;101709.22;5003673;28;20038;-54
2021/04/09 02:15:24;;;;;;;5.78;1.27;;;3.60;75.20;;;3.01;55.05;101706.56;5002067;28;20058;-60
2021/04/09 02:17:50;;;;;;;3.72;0.88;;;3.50;76.20;;;2.94;55.52;101700.84;4984869;28;20688;-52
2021/04/09 02:20:21;;;;;;;2.47;1.00;;;3.50;76.60;;;2.92;55.39;101696.66;4988905;28;20037;-51
2021/04/09 02:22:50;;;;;;;4.25;1.75;;;3.50;77.20;;;2.85;55.37;101690.94;4987993;28;20130;-50
2021/04/09 02:25:19;;;;;;;3.65;1.23;;;3.40;77.00;;;2.84;56.19;101698.72;4988520;28;20039;-49
2021/04/09 02:27:47;;;;;;;3.45;1.20;;;3.40;78.20;;;2.84;56.59;101693.59;4987972;28;20042;-52
2021/04/09 02:30:16;;;;;;;2.55;1.23;;;3.40;78.60;;;2.78;56.00;101691.28;4988949;28;20133;-57
2021/04/09 02:32:42;;;;;;;3.53;0.75;;;3.30;78.10;;;2.74;56.33;101687.19;4986091;28;20420;-51
2021/04/09 02:35:12;;;;;;;2.45;1.08;;;3.30;78.80;;;2.77;55.98;101680.16;4987482;28;20086;-58
2021/04/09 02:37:42;;;;;;;2.00;0.80;;;3.30;78.80;;;2.82;56.76;101677.41;5012957;28;20069;-55
2021/04/09 02:40:21;;;;;;;1.67;0.95;;;3.30;79.20;;;2.84;56.76;101681.53;5010133;28;20041;-52
2021/04/09 02:42:51;;;;;;;4.55;1.55;;;3.40;79.10;;;2.81;55.96;101676.56;5009526;28;20112;-49
2021/04/09 02:45:20;;;;;;;4.70;2.13;;;3.30;78.80;;;2.62;56.71;101678.22;5009197;28;20025;-52
2021/04/09 02:47:47;;;;;;;6.15;1.38;;;3.20;79.60;;;2.63;56.97;101677.31;5009276;28;20033;-51
2021/04/09 02:50:29;;;;;;;3.05;1.05;;;3.20;80.40;;;2.66;57.53;101675.47;5027560;28;20497;-56
2021/04/09 02:53:30;;;;;;;2.35;1.08;;;3.20;80.10;;;2.69;57.29;101676.22;5009800;28;20132;-51
2021/04/09 02:55:58;;;;;;;3.80;1.17;;;3.20;81.20;;;2.63;57.89;101674.75;4989104;28;20707;-53
2021/04/09 02:58:26;;;;;;;2.30;1.10;;;3.20;81.70;;;2.61;57.58;101681.69;5008336;28;20469;-50
2021/04/09 03:00:53;;;;;;;3.75;0.98;;;3.20;82.20;;;2.53;57.87;101674.28;5010208;28;20037;-55
2021/04/09 03:03:21;;;;;;;2.42;0.90;;;3.10;83.10;;;2.50;58.21;101673.59;4878661;23;20064;-56
2021/04/09 03:05:53;;;;;;;3.05;1.08;;;3.10;84.70;;;2.47;58.93;101674.53;4995775;23;20058;-51
2021/04/09 03:08:20;;;;;;;2.55;0.90;;;3.00;84.70;;;2.46;58.51;101674.59;5003817;28;20095;-54
2021/04/09 03:10:46;;;;;;;1.95;0.85;;;3.00;85.10;;;2.44;58.72;101682.38;4994172;28;20129;-51
2021/04/09 03:13:12;;;;;;;5.25;1.00;;;3.00;85.40;;;2.42;59.21;101673.06;5011915;28;20069;-51
2021/04/09 03:15:46;;;;;;;5.22;0.73;;;3.00;86.00;;;2.48;59.02;101675.38;5011210;28;20038;-53
2021/04/09 03:18:13;;;;;;;2.08;0.73;;;3.00;85.90;;;2.52;58.13;101671.78;4994198;28;20042;-58
2021/04/09 03:20:40;;;;;;;4.00;1.00;;;3.00;86.20;;;2.52;58.27;101664.06;4993781;28;20096;-50
2021/04/09 03:23:07;;;;;;;4.47;1.23;;;3.00;85.60;;;2.50;58.71;101671.00;5011603;28;20370;-52
2021/04/09 03:25:36;;;;;;;1.80;0.70;;;3.10;86.40;;;2.44;59.14;101674.66;5009417;28;20414;-53
2021/04/09 03:28:05;;;;;;;2.90;0.90;;;3.00;87.10;;;2.43;59.39;101669.59;5011468;28;20033;-52
2021/04/09 03:30:32;;;;;;;2.83;0.75;;;3.00;87.70;;;2.40;59.08;101669.72;4993930;28;20049;-52
2021/04/09 03:32:58;;;;;;;3.22;0.80;;;3.00;87.70;;;2.37;59.25;101674.97;5011443;28;20060;-53
2021/04/09 03:35:24;;;;;;;4.70;0.90;;;2.90;87.80;;;2.41;58.80;101676.53;5011336;28;20205;-53
2021/04/09 03:37:50;;;;;;;1.90;0.85;;;3.00;88.00;;;2.53;58.18;101678.59;5009754;28;20100;-50
2021/04/09 03:40:17;;;;;;;1.80;0.65;;;3.00;87.20;;;2.56;57.96;101671.59;5011325;28;20026;-57
2021/04/09 03:42:44;;;;;;;2.85;0.70;;;3.00;86.50;;;2.54;58.03;101665.69;5011059;28;20041;-48
2021/04/09 03:45:11;;;;;;;1.90;0.57;;;3.10;86.90;;;2.58;57.95;101666.38;5009014;28;20062;-49
2021/04/09 03:47:37;;;;;;;2.75;0.63;;;3.10;86.60;;;2.62;58.03;101667.94;5011062;28;20026;-55
2021/04/09 03:50:08;;;;;;;2.40;0.82;;;3.10;86.30;;;2.59;58.26;101663.75;5010999;28;20147;-54
2021/04/09 03:52:36;;;;;;;2.40;0.70;;;3.10;86.80;;;2.51;58.69;101664.97;5010854;28;20081;-55
2021/04/09 03:55:04;;;;;;;1.88;0.82;;;3.10;87.80;;;2.50;58.47;101673.59;4992605;28;20034;-54
2021/04/09 03:57:30;;;;;;;3.60;0.82;;;3.00;87.50;;;2.47;58.66;101669.41;5010426;28;20033;-51
2021/04/09 03:59:56;;;;;;;1.63;0.60;;;3.00;87.50;;;2.42;58.33;101665.34;4993062;28;20045;-47
2021/04/09 04:02:22;;;;;;;1.40;0.60;;;3.00;87.90;;;2.49;58.22;101656.47;5010966;28;20477;-51
2021/04/09 04:04:47;;;;;;;1.80;0.57;;;3.00;87.40;;;2.53;58.18;101664.00;5010797;28;20081;-51
2021/04/09 04:07:13;;;;;;;2.28;0.80;;;3.00;87.30;;;2.56;57.51;101663.03;5009876;28;20118;-55
2021/04/09 04:09:39;;;;;;;2.63;0.80;;;3.00;86.80;;;2.51;57.78;101664.97;5010976;28;20045;-58
2021/04/09 04:12:06;;;;;;;6.32;0.70;;;3.10;86.80;;;2.45;58.40;101662.66;5010384;28;20121;-53
2021/04/09 04:14:32;;;;;;;2.42;0.82;;;3.00;87.70;;;2.44;58.07;101664.38;5010690;28;20112;-53
2021/04/09 04:16:58;;;;;;;2.30;0.70;;;3.00;88.50;;;2.41;58.83;101654.22;5010434;28;20128;-52
2021/04/09 04:19:24;;;;;;;3.00;0.93;;;3.00;89.40;;;2.40;59.07;101654.28;5010605;28;20486;-56
2021/04/09 04:21:51;;;;;;;4.30;0.80;;;2.90;90.10;;;2.39;58.82;101665.47;5009930;28;20461;-55
2021/04/09 04:24:17;;;;;;;1.75;0.65;;;3.00;89.90;;;2.40;59.22;101662.84;5010292;28;20096;-52
2021/04/09 04:26:43;;;;;;;5.22;1.65;;;2.90;90.10;;;2.41;59.22;101648.25;5010053;28;20504;-50
2021/04/09 04:29:09;;;;;;;2.30;0.80;;;2.90;90.20;;;2.39;59.41;101660.31;5010367;28;20116;-58
2021/04/09 04:31:35;;;;;;;2.75;0.70;;;2.90;90.40;;;2.41;59.66;101666.25;5010348;28;20066;-54
2021/04/09 04:34:02;;;;;;;2.35;0.55;;;2.90;90.30;;;2.42;59.50;101660.19;5010283;28;20109;-53
2021/04/09 04:36:27;;;;;;;4.95;0.60;;;3.00;90.50;;;2.48;59.18;101663.34;5009740;28;20400;-48
2021/04/09 04:38:54;;;;;;;4.03;0.63;;;3.00;90.60;;;2.54;58.97;101660.53;5010115;28;20042;-58
2021/04/09 04:41:20;;;;;;;4.82;0.60;;;3.00;90.40;;;2.52;59.09;101661.50;5010022;28;20453;-54
2021/04/09 04:43:46;;;;;;;1.23;0.50;;;3.10;90.60;;;2.59;58.72;101666.31;4992594;28;20049;-56
2021/04/09 04:46:12;;;;;;;4.15;1.00;;;3.10;90.20;;;2.60;58.28;101665.44;5010114;28;20058;-53
2021/04/09 04:48:38;;;;;;;4.85;1.50;;;3.20;90.10;;;2.51;58.80;101672.69;5009519;28;20438;-57
2021/04/09 04:51:05;;;;;;;5.95;1.50;;;3.10;90.10;;;2.52;58.85;101677.75;5009915;28;20034;-56
2021/04/09 04:53:31;;;;;;;5.03;1.05;;;3.10;90.10;;;2.60;58.67;101674.88;4991988;28;20054;-54
2021/04/09 04:55:57;;;;;;;2.83;1.00;;;3.20;90.40;;;2.74;58.32;101682.03;4993017;28;20362;-50
2021/04/09 04:58:23;;;;;;;1.88;0.65;;;3.30;90.00;;;2.87;57.99;101688.31;4997394;28;20084;-55
2021/04/09 05:00:49;;;;;;;2.10;0.98;;;3.40;89.50;;;2.96;57.78;101687.91;5009287;28;20030;-53
2021/04/09 05:03:15;;;;;;;2.47;0.93;;;3.50;88.80;;;3.00;57.90;101692.88;5009469;28;20068;-48
2021/04/09 05:05:41;;;;;;;1.98;0.98;;;3.70;88.80;;;3.05;57.63;101697.81;5009558;28;20050;-50
2021/04/09 05:08:07;;;;;;;4.38;1.30;;;3.70;88.10;;;3.15;57.72;101708.56;5009781;28;20038;-56
2021/04/09 05:10:33;;;;;;;7.93;1.08;;;3.80;88.00;;;3.18;57.73;101708.44;5008904;28;20433;-49
2021/04/09 05:12:59;;;;;;;4.10;0.82;;;3.80;88.00;;;3.25;57.45;101707.25;4991316;28;20092;-57
2021/04/09 05:15:25;;;;;;;5.35;1.23;;;3.90;87.40;;;3.22;57.67;101707.41;5009727;28;20104;-53
2021/04/09 05:17:51;;;;;;;3.92;0.52;;;3.80;87.90;;;3.08;58.80;101699.44;5009376;28;20073;-55
2021/04/09 05:20:17;;;;;;;6.15;2.20;;;3.80;88.60;;;3.10;58.47;101707.91;5009431;28;20069;-55
2021/04/09 05:22:43;;;;;;;3.83;1.25;;;3.80;89.70;;;3.19;58.50;101710.09;5009141;28;20049;-49
2021/04/09 05:25:10;;;;;;;2.88;1.15;;;3.80;89.30;;;3.36;57.60;101707.59;5009186;28;20112;-50
2021/04/09 05:27:36;;;;;;;4.75;1.23;;;4.00;87.80;;;3.47;57.01;101707.97;5007826;28;20029;-52
2021/04/09 05:30:04;;;;;;;3.75;1.30;;;4.10;86.30;;;3.40;58.30;101713.44;5009051;28;20029;-56
2021/04/09 05:32:30;;;;;;;2.78;1.02;;;4.00;87.40;;;3.39;57.39;101706.63;5009322;28;20161;-51
2021/04/09 05:34:56;;;;;;;4.60;0.90;;;4.00;87.20;;;3.36;57.44;101705.03;5008875;28;20062;-57
2021/04/09 05:37:22;;;;;;;4.40;1.65;;;4.00;87.40;;;3.33;58.65;101707.72;5008421;28;20412;-56
2021/04/09 05:39:48;;;;;;;2.47;0.82;;;3.90;88.20;;;3.34;58.06;101715.41;5007500;28;20034;-55
2021/04/09 05:42:14;;;;;;;2.38;0.98;;;3.90;89.00;;;3.46;57.86;101708.03;5008818;28;20034;-57
2021/04/09 05:44:41;;;;;;;4.32;1.50;;;4.00;89.10;;;3.57;57.63;101710.97;5007001;28;20164;-54
2021/04/09 05:47:08;;;;;;;4.85;1.17;;;4.00;88.50;;;3.69;57.48;101710.41;4990112;28;20034;-52
2021/04/09 05:49:34;;;;;;;6.93;1.48;;;4.20;88.20;;;3.72;56.67;101709.44;5007868;28;20040;-57
2021/04/09 05:52:04;;;;;;;3.53;1.20;;;4.30;87.10;;;3.72;57.05;101715.44;5008915;28;20042;-55
2021/04/09 05:54:30;;;;;;;4.88;1.35;;;4.30;87.00;;;3.78;56.96;101725.44;5007855;28;20026;-57
2021/04/09 05:56:55;;;;;;;6.28;1.67;;;4.30;87.20;;;3.89;56.18;101717.22;5009137;28;20037;-53
2021/04/09 05:59:22;;;;;;;6.25;1.20;;;4.40;86.50;;;3.97;56.55;101713.38;5005589;28;20045;-51
2021/04/09 06:01:47;;;;;;;4.25;1.55;;;4.50;86.30;;;4.05;56.37;101713.00;5005772;28;20542;-54
2021/04/09 06:04:13;;;;;;;3.05;1.33;;;4.60;86.60;;;4.09;56.21;101719.69;5008210;28;20121;-55
2021/04/09 06:06:39;;;;;;;7.90;1.05;;;4.60;85.20;;;4.18;55.94;101715.84;5006520;28;20033;-53
2021/04/09 06:09:05;;;;;;;3.72;1.73;;;4.70;86.10;;;4.23;55.62;101721.63;4990397;28;20030;-59
2021/04/09 06:11:32;;;;;;;11.30;1.98;;;4.70;85.00;;;4.33;55.84;101728.84;5007140;28;20041;-55
2021/04/09 06:13:58;;;;;;;4.18;1.63;;;4.80;85.60;;;4.38;55.47;101720.88;5007508;28;20034;-53
2021/04/09 06:16:24;;;;;;;6.45;1.45;;;4.90;84.60;;;4.50;55.55;101722.03;4989736;28;20038;-56
2021/04/09 06:18:50;;;;;;;4.13;1.30;;;5.00;85.20;;;4.58;55.28;101727.66;5006686;28;20068;-57
2021/04/09 06:21:16;;;;;;;5.30;1.10;;;5.10;84.60;;;4.58;54.81;101722.50;5002178;28;20038;-56
2021/04/09 06:23:42;;;;;;;10.43;1.10;;;5.10;83.00;;;4.63;54.56;101718.78;4990438;28;20120;-54
2021/04/09 06:26:08;;;;;;;5.30;1.25;;;5.10;82.60;;;4.70;54.72;101724.47;5007571;28;20197;-55
2021/04/09 06:28:34;;;;;;;2.33;1.27;;;5.20;82.20;;;4.79;54.01;101721.41;5008198;28;20045;-57
2021/04/09 06:31:00;;;;;;;7.90;1.73;;;5.30;81.90;;;4.93;54.24;101723.31;5004321;28;20372;-59
2021/04/09 06:33:27;;;;;;;4.55;1.90;;;5.40;81.90;;;5.15;53.48;101730.81;5006297;28;20037;-56
2021/04/09 06:35:53;;;;;;;7.95;1.55;;;5.60;81.10;;;5.12;53.55;101728.38;5008115;28;20457;-53
2021/04/09 06:38:19;;;;;;;7.20;2.40;;;5.60;80.80;;;5.03;53.85;101723.69;5007208;28;20679;-57
2021/04/09 06:40:46;;;;;;;7.80;2.05;;;5.60;80.40;;;5.16;53.60;101727.31;5006845;28;20038;-57
2021/04/09 06:43:12;;;;;;;8.75;1.73;;;5.60;80.20;;;5.34;53.19;101722.00;5004574;28;20038;-57
2021/04/09 06:45:39;;;;;;;5.43;0.98;;;5.80;79.60;;;5.39;52.78;101737.25;5004536;28;20172;-51
2021/04/09 06:48:08;;;;;;;6.20;1.70;;;5.90;78.50;;;5.54;52.50;101743.38;5008305;28;20037;-55
2021/04/09 06:50:34;;;;;;;5.22;1.67;;;6.00;78.90;;;5.56;52.43;101729.47;5006238;28;20196;-54
2021/04/09 06:53:00;;;;;;;2.90;1.25;;;6.00;78.00;;;5.60;52.19;101730.97;5007629;28;20029;-51
2021/04/09 06:55:27;;;;;;;3.38;1.35;;;6.10;77.40;;;5.80;52.18;101734.22;5007218;28;20044;-55
2021/04/09 06:57:53;;;;;;;4.88;1.50;;;6.20;77.60;;;5.91;51.89;101732.75;5008493;28;20045;-52
2021/04/09 07:00:27;;;;;;;8.52;1.52;;;6.40;77.30;;;5.92;51.39;101741.34;5007286;28;20065;-53
2021/04/09 07:02:53;;;;;;;3.55;0.90;;;6.40;75.70;;;5.86;51.53;101742.47;5000675;28;20038;-55
2021/04/09 07:05:19;;;;;;;2.92;1.17;;;6.40;75.60;;;5.85;51.67;101739.97;5007070;28;20481;-52
2021/04/09 07:07:46;;;;;;;4.13;1.80;;;6.40;75.60;;;5.82;51.87;101740.97;4985816;28;20036;-58
2021/04/09 07:10:12;;;;;;;5.28;1.10;;;6.40;75.70;;;5.96;51.34;101737.69;5007726;28;20030;-54
2021/04/09 07:12:38;;;;;;;4.43;1.45;;;6.50;75.30;;;6.08;51.41;101738.78;5006606;28;20126;-55
2021/04/09 07:15:14;;;;;;;6.15;1.08;;;6.60;75.10;;;6.15;51.13;101740.91;4990207;28;20050;-49
2021/04/09 07:17:50;;;;;;;6.35;1.40;;;6.60;74.60;;;6.21;50.97;101740.56;4988404;28;20034;-51
2021/04/09 07:20:20;;;;;;;3.40;1.00;;;6.70;74.20;;;6.42;50.46;101746.31;5002027;28;20031;-53
2021/04/09 07:22:55;;;;;;;4.65;1.02;;;6.90;74.00;;;6.38;50.56;101738.78;5005488;28;20041;-50
2021/04/09 07:25:24;;;;;;;2.15;1.10;;;6.90;73.20;;;6.46;50.47;101745.22;5005001;28;20030;-47
2021/04/09 07:28:09;;;;;;;3.08;1.05;;;7.00;72.70;;;6.52;50.13;101741.44;5006168;28;20056;-52
2021/04/09 07:30:35;;;;;;;5.28;1.00;;;7.00;72.40;;;6.71;50.01;101749.81;5006764;28;20057;-58
2021/04/09 07:33:10;;;;;;;4.13;0.95;;;7.20;72.10;;;6.75;49.78;101746.13;5006572;28;20034;-55
2021/04/09 07:35:54;;;;;;;7.63;1.20;;;7.20;71.90;;;6.92;48.92;101745.97;4989360;28;20544;-53
2021/04/09 07:38:23;;;;;;;5.72;1.25;;;7.40;71.00;;;7.14;48.75;101735.16;5004260;28;20117;-53
2021/04/09 07:41:02;;;;;;;6.95;1.40;;;7.60;71.10;;;7.33;48.43;101740.09;5003592;28;20401;-53
2021/04/09 07:43:40;;;;;;;4.68;1.83;;;7.80;70.60;;;7.40;48.18;101745.75;5007160;28;20160;-55
2021/04/09 07:46:18;;;;;;;2.40;0.98;;;8.00;69.70;;;7.36;48.20;101746.84;4993498;28;20033;-54
2021/04/09 07:48:44;;;;;;;3.95;1.73;;;7.90;69.30;;;7.42;48.58;101752.50;4987663;28;20069;-52
2021/04/09 07:51:20;;;;;;;9.45;1.52;;;8.00;69.20;;;7.56;47.89;101752.47;5004057;28;20512;-57
2021/04/09 07:53:47;;;;;;;5.53;1.65;;;8.10;69.30;;;7.51;48.63;101745.94;4993155;28;20045;-51
2021/04/09 07:56:18;;;;;;;3.00;1.58;;;8.10;69.30;;;7.45;48.48;101744.53;5010011;28;20470;-57
2021/04/09 07:58:46;;;;;;;2.67;1.15;;;8.10;69.10;;;7.34;49.00;101757.31;5010942;28;20467;-48
2021/04/09 08:01:26;;;;;;;2.35;1.02;;;8.00;69.20;;;7.48;48.42;101754.72;5010765;28;20025;-54
2021/04/09 08:03:54;;;;;;;4.15;1.70;;;8.10;69.30;;;7.63;48.50;101745.97;5010797;28;20118;-57
2021/04/09 08:06:23;;;;;;;3.63;1.45;;;8.10;69.40;;;7.72;48.38;101756.72;5008812;28;20034;-52
2021/04/09 08:08:49;;;;;;;3.28;1.20;;;8.20;69.50;;;7.77;47.97;101752.91;5009833;28;20146;-55
2021/04/09 08:11:44;;;;;;;4.03;1.58;;;8.30;68.60;;;7.82;48.02;101747.44;5008712;28;20112;-56
2021/04/09 08:14:23;;;;;;;9.73;1.65;;;8.30;68.50;;;7.85;47.94;101744.66;4992028;28;20103;-54
2021/04/09 08:16:51;;;;;;;4.43;1.95;;;8.40;68.50;;;8.02;47.58;101757.41;4991980;28;20393;-51
2021/04/09 08:19:20;;;;;;;3.85;1.50;;;8.50;68.40;;;7.94;47.65;101757.91;5001844;28;20030;-54
2021/04/09 08:21:58;;;;;;;3.70;1.05;;;8.50;68.00;;;8.04;47.33;101759.88;5003017;28;20049;-49
2021/04/09 08:24:32;;;;;;;4.70;1.80;;;8.60;68.10;;;8.23;47.86;101758.63;5009855;28;20124;-55
2021/04/09 08:26:59;;;;;;;4.72;2.55;;;8.70;68.10;;;8.20;47.31;101758.84;4988950;28;20045;-57
2021/04/09 08:29:27;;;;;;;2.70;1.25;;;8.80;67.50;;;8.24;47.45;101754.28;5010100;28;20079;-52
2021/04/09 08:31:55;;;;;;;6.15;1.63;;;8.90;67.80;;;8.27;47.36;101759.28;5008326;28;20462;-50
2021/04/09 08:34:21;;;;;;;2.42;1.55;;;8.90;67.70;;;8.47;47.23;101761.47;4995863;28;20045;-55
2021/04/09 08:36:53;;;;;;;4.03;1.80;;;9.00;67.50;;;8.54;46.85;101756.69;4992876;28;20125;-58
2021/04/09 08:39:20;;;;;;;5.20;1.75;;;9.10;67.00;;;8.60;46.74;101757.13;5009235;28;20396;-58
2021/04/09 08:41:50;;;;;;;6.50;1.75;;;9.10;66.70;;;8.82;46.41;101753.13;5008369;28;20038;-53
2021/04/09 08:44:17;;;;;;;4.50;2.13;;;9.30;66.80;;;9.21;46.04;101755.63;4992167;28;20100;-55
2021/04/09 08:46:43;;;;;;;3.65;1.50;;;9.50;66.40;;;9.37;45.88;101747.63;5006949;28;20139;-51
2021/04/09 08:49:13;;;;;;;3.33;1.23;;;9.80;65.80;;;9.76;45.24;101753.56;5009621;28;20590;-54
2021/04/09 08:51:41;;;;;;;1.95;1.30;;;10.10;65.30;;;10.09;44.25;101752.94;4992258;28;20088;-54
2021/04/09 08:54:21;;;;;;;5.00;1.95;;;10.50;64.00;;;10.20;43.41;101755.63;4992988;28;20033;-49
2021/04/09 08:56:48;;;;;;;5.93;1.40;;;10.70;62.90;;;10.38;43.90;101753.47;5010994;28;20030;-53
2021/04/09 08:59:14;;;;;;;4.63;1.67;;;10.90;62.70;;;10.38;43.42;101750.88;5010618;28;20103;-54
2021/04/09 09:01:41;;;;;;;6.32;1.40;;;11.00;61.60;;;10.29;43.63;101744.56;5009356;28;20712;-60
2021/04/09 09:04:22;;;;;;;4.22;1.42;;;11.00;61.50;;;10.52;42.56;101755.88;5008717;28;20136;-50
2021/04/09 09:06:49;;;;;;;3.10;1.20;;;11.00;61.30;;;10.57;43.22;101756.38;5010280;28;20771;-51
2021/04/09 09:09:35;;;;;;;3.30;1.05;;;11.10;61.40;;;11.21;41.54;101749.78;5010433;28;20053;-58
2021/04/09 09:12:14;;;;;;;3.95;1.08;;;11.40;60.30;;;11.30;41.06;101756.06;4992497;28;20066;-50
2021/04/09 09:14:45;;;;;;;5.22;1.75;;;11.80;59.50;;;11.87;40.76;101742.84;4991863;28;20830;-52
2021/04/09 09:17:20;;;;;;;3.22;0.70;;;12.10;59.60;;;11.46;41.45;101746.09;5010322;28;20026;-55
2021/04/09 09:20:05;;;;;;;3.30;0.60;;;12.20;59.40;;;11.68;41.76;101754.88;5010106;28;20048;-55
2021/04/09 09:22:55;;;;;;;7.35;1.10;;;12.20;59.80;;;12.53;40.15;101745.38;5010136;28;20041;-52
2021/04/09 09:25:36;;;;;;;3.55;0.50;;;12.80;59.20;;;12.16;41.03;101744.94;5009732;28;20473;-53
2021/04/09 09:28:08;;;;;;;1.63;0.63;;;12.80;58.90;;;11.74;42.57;101743.94;5010018;28;20042;-58
2021/04/09 09:30:38;;;;;;;3.05;0.60;;;12.40;59.70;;;12.03;42.49;101749.47;5009954;28;20038;-58
2021/04/09 09:33:21;;;;;;;1.80;0.20;;;12.60;60.50;;;11.43;44.34;101740.28;5009670;28;20229;-58
2021/04/09 09:36:09;;;;;;;3.00;0.50;;;12.40;61.30;;;12.16;43.03;101743.16;5009299;28;20029;-54
2021/04/09 09:38:55;;;;;;;2.20;0.52;;;12.60;61.70;;;12.41;42.61;101739.34;5009776;28;20046;-56
2021/04/09 09:41:44;;;;;;;2.60;0.35;;;12.90;60.90;;;12.05;43.49;101729.28;5009646;28;20132;-52
2021/04/09 09:44:30;;;;;;;3.58;0.40;;;12.90;61.00;;;12.19;44.26;101729.84;5009588;28;20038;-54
2021/04/09 09:47:14;;;;;;;2.00;0.35;;;12.80;62.50;;;12.49;44.24;101730.91;5008547;28;20045;-53
2021/04/09 09:50:19;;;;;;;5.03;0.65;;;12.90;63.10;;;12.90;44.09;101728.28;5009536;28;20096;-53
2021/04/09 09:53:05;;;;;;;2.90;0.70;;;13.20;62.70;;;13.56;42.40;101726.13;5007975;28;20140;-59
2021/04/09 09:55:42;;;;;;;3.27;0.53;;;14.00;61.60;;;13.52;43.37;101721.28;5009504;28;20038;-57
2021/04/09 09:58:19;;;;;;;3.78;0.40;;;14.00;61.80;;;13.38;43.59;101719.84;4996183;28;20339;-53
2021/04/09 10:01:03;;;;;;;5.28;0.60;;;14.10;62.10;;;13.71;43.63;101710.00;5008639;28;20037;-60
2021/04/09 10:03:35;;;;;;;5.18;1.17;;;14.10;62.80;;;14.05;43.19;101700.84;5006374;28;20125;-52
2021/04/09 10:06:12;;;;;;;4.93;0.50;;;14.40;62.60;;;14.68;42.20;101706.47;5009054;28;20093;-55
2021/04/09 10:08:40;;;;;;;5.20;0.60;;;14.90;62.20;;;14.60;42.57;101695.88;5009420;28;20038;-58
2021/04/09 10:11:21;;;;;;;3.58;0.38;;;15.10;61.70;;;14.38;42.92;101699.59;5009069;28;20080;-55
2021/04/09 10:13:52;;;;;;;1.65;0.50;;;14.90;61.90;;;15.01;42.31;101692.03;5008917;28;20041;-60
2021/04/09 10:16:25;;;;;;;4.22;0.32;;;15.10;62.30;;;15.99;40.50;101688.75;5002882;28;20037;-51
2021/04/09 10:18:57;;;;;;;3.17;0.40;;;15.90;61.00;;;16.41;39.14;101688.09;4987081;28;20078;-52
2021/04/09 10:21:36;;;;;;;3.47;0.50;;;16.70;58.90;;;16.02;40.25;101685.81;4988828;28;20037;-55
2021/04/09 10:24:38;;;;;;;4.25;0.40;;;16.60;58.50;;;15.00;41.80;101684.28;5006859;28;20065;-61
2021/04/09 10:27:04;;;;;;;3.30;0.73;;;15.80;59.20;;;15.11;42.02;101686.75;4998659;28;20133;-54
2021/04/09 10:29:38;;;;;;;3.80;0.40;;;15.70;59.80;;;14.99;42.41;101677.41;5004664;28;20493;-62
2021/04/09 10:32:13;;;;;;;5.93;0.50;;;15.60;60.10;;;14.97;42.46;101679.34;4989647;28;20038;-58
2021/04/09 10:34:39;;;;;;;5.07;0.75;;;15.50;60.50;;;15.40;41.69;101671.66;4973270;28;20034;-62
2021/04/09 10:37:06;;;;;;;7.32;0.40;;;15.70;60.50;;;15.69;41.16;101666.25;4989595;28;20038;-57